Fort Howard, Maryland
Current Conditions -  °F | °C
As of 1:45 PM on Monday 20 Oct 2014 (Local Time) from KMTN Reporting Station
Broken Clouds Broken Clouds  
Wind Chill: 64°   Ceiling: 20000
Heat Index: 64°   Visibility: 10mi
Dew Point: 48°   Wind: 17mph
Humidity: 56%   Direction: 150°SSE
Pressure: 30.02"   Gusts: NA
Location:  39.21°N, 76.45°W
Report Text: KMTN 201745Z 15015KT 10SM BKN200 18/09 A3002
Loading
Personal Weather Stations






























Interactive Weather Map
Tropical Storm Tracking
New forecast layout! Learn more

10-Day Weather Forecast

Advertisements
Track Severe Weather on mobile